Motte Rimrock Reserve, California Weather observations

Data are for 10 minute period ending at time listed.
 Day   Time   Solar   Ave.   Ave.  Ave.  Vector  Max.   Baro.   Total    
  of    of     Rad.   Air    Rel.  Wind   Wind   Wind  Press.  Precip.   
Year   Day            Temp.  Hum.  Speed  Dir.   Gust                    
2015   (PST)  Kw/m2    F      %     mph   deg.    mph    mb.     in.     
-------------------------------------------------------------------------
 180    9:00   0.23   85.3    21    4.0   258     6.9   946.4    0.00 
 180    9:10   0.26   85.4    23    3.9   180     6.1   946.5    0.00 
 180    9:20   0.30   85.5    24    3.7   175     5.4   946.6    0.00 
 180    9:30   0.31   85.6    24    5.1   199     7.4   946.5    0.00 
 180    9:40   0.28   85.7    23    5.7   198     8.2   946.5    0.00 
 180    9:50   0.24   86.3    22    5.8   213     8.3   946.5    0.00 
 180   10:00   0.27   86.5    23    4.5   211     7.5   946.5    0.00 
 180   10:10   0.41   87.3    24    4.4   221     7.6   946.4    0.00 
 180   10:20   0.45   88.5    22    3.0   184     5.3   946.4    0.00 
 180   10:30   0.82   90.4    21    4.0   223     7.5   946.4    0.00 
 180   10:40   0.58   91.0    20    3.4   282     6.9   946.3    0.00 
 180   10:50   0.63   92.0    19    6.5   289     9.7   946.2    0.00 
 180   11:00   0.68   93.4    17    8.6   297    11.0   946.1    0.00 
 180   11:10   0.88   93.3    19    8.5   304    11.9   946.2    0.00 
 180   11:20   0.71   93.5    19    8.1   322    12.6   946.3    0.00 
 180   11:30   0.51   92.4    20   10.6   309    16.1   946.3    0.00 
 180   11:40   0.94   92.8    20   10.7   311    14.2   946.2    0.00 
 180   11:50   0.67   92.3    21   11.4   317    14.5   946.2    0.00 
 180   12:00   0.74   92.0    22   13.9   310    16.7   946.1    0.00 
 180   12:10   0.85   92.9    20   14.7   304    20.0   945.9    0.00 
 180   12:20   0.56   91.3    20   16.6   306    20.6   945.8    0.00 
 180   12:30   0.87   91.8    20   15.8   309    19.6   945.8    0.00 
 180   12:40   0.83   91.9    20   16.8   305    20.5   945.7    0.00 
 180   12:50   0.88   92.6    20   16.0   303    20.3   945.7    0.00 
 180   13:00   0.92   93.0    21   15.5   306    19.1   945.5    0.00 
 180   13:10   0.99   93.5    21   15.7   302    20.2   945.4    0.00 
 180   13:20   0.87   93.5    21   15.9   305    21.1   945.4    0.00 
 180   13:30   0.92   94.0    20   15.3   307    19.1   945.5    0.00 
 180   13:40   0.90   94.7    19   14.8   306    18.1   945.5    0.00 
 180   13:50   0.83   95.4    19   13.0   299    16.6   945.5    0.00 
 180   14:00   0.68   95.5    20   11.7   305    16.7   945.5    0.00 
 180   14:10   0.74   96.2    19   12.4   313    17.5   945.5    0.00 
 180   14:20   0.88   96.9    18   13.9   305    19.5   945.3    0.00 
 180   14:30   0.93   96.8    17   13.6   296    19.0   945.2    0.00 
 180   14:40   0.66   97.1    17   14.0   303    19.2   945.1    0.00 
 180   14:50   0.41   96.2    18   13.8   310    19.2   945.0    0.00 
 180   15:00   0.55   96.3    18   14.6   310    22.3   944.9    0.00 
 180   15:10   0.68   97.1    19   14.8   311    19.7   944.8    0.00 
 180   15:20   0.65   97.4    19   15.0   312    20.6   944.7    0.00 
 180   15:30   0.64   96.4    20   15.5   306    20.5   944.7    0.00 
 180   15:40   0.59   96.7    19   14.9   308    19.5   944.6    0.00 
 180   15:50   0.56   95.7    18   15.8   308    19.2   944.6    0.00 
 180   16:00   0.53   95.4    18   15.5   305    19.9   944.5    0.00 
 180   16:10   0.50   95.3    17   15.2   298    18.6   944.5    0.00 
 180   16:20   0.47   95.0    18   14.7   307    18.6   944.5    0.00 
 180   16:30   0.49   94.6    17   16.0   310    20.9   944.5    0.00 
 180   16:40   0.48   93.9    17   16.3   302    20.3   944.4    0.00 
 180   16:50   0.43   93.3    17   17.3   300    21.2   944.4    0.00 
 180   17:00   0.38   92.8    17   16.1   300    21.1   944.4    0.00 
 180   17:10   0.30   92.3    16   15.5   302    20.6   944.4    0.00 
 180   17:20   0.27   91.8    16   15.8   294    20.2   944.4    0.00 
 180   17:30   0.21   90.8    17   17.9   293    22.5   944.2    0.00 
 180   17:40   0.20   90.6    19   15.3   300    21.7   944.3    0.00 
 180   17:50   0.17   89.7    21   16.0   300    20.5   944.4    0.00 
 180   18:00   0.15   89.1    22   13.8   304    17.9   944.5    0.00 
 180   18:10   0.12   88.9    22   12.3   300    15.6   944.6    0.00 
 180   18:20   0.09   88.2    21   13.5   293    16.3   944.6    0.00 
 180   18:30   0.07   87.4    19   14.4   297    18.1   944.6    0.00 
 180   18:40   0.04   86.5    20   14.1   300    18.6   944.7    0.00 
 180   18:50   0.02   85.8    22   14.2   308    17.5   944.8    0.00 
 180   19:00   0.01   85.0    22   13.5   305    18.4   944.9    0.00 
 180   19:10   0.01   84.1    24   12.6   304    15.2   945.1    0.00 
 180   19:20   0.01   83.4    26   12.9   299    17.6   945.2    0.00 
 180   19:30   0.01   82.9    27   13.3   308    16.6   945.4    0.00 
 180   19:40   0.00   82.3    28   13.1   309    15.5   945.5    0.00 
 180   19:50   0.00   81.7    29   11.9   314    14.9   945.7    0.00 
 180   20:00   0.00   81.1    29   13.5   313    15.8   945.7    0.00 
 180   20:10   0.00   80.7    30   12.1   316    15.0   945.7    0.00 
 180   20:20   0.00   80.3    31    5.8   340    13.0   946.2    0.00 
 180   20:30   0.00   79.8    32    3.9   345     6.7   946.5    0.00 
 180   20:40   0.00   78.9    33    7.5   319    10.7   946.5    0.00 
 180   20:50   0.00   78.0    36    8.8   310    12.6   946.6    0.00 
 180   21:00   0.00   77.3    38    9.6   299    12.1   946.6    0.00 
 180   21:10   0.00   76.7    40    9.1   295    12.9   946.7    0.00 
 180   21:20   0.00   76.2    42    5.5   288    10.2   947.0    0.00 
 180   21:30   0.00   75.7    43    3.5   303     6.4   947.1    0.00 
 180   21:40   0.00   75.3    44    3.7   290     5.3   947.2    0.00 
 180   21:50   0.00   74.9    45    3.8   275     4.9   947.2    0.00 
 180   22:00   0.00   74.5    45    4.2   265     5.1   947.1    0.00 
 180   22:10   0.00   74.6    44    3.0   272     4.3   947.1    0.00 
 180   22:20   0.00   74.5    44    5.7   286     7.7   946.9    0.00 
 180   22:30   0.00   74.3    42    6.5   292     7.9   946.9    0.00 
 180   22:40   0.00   74.6    42    5.1   283     6.7   947.0    0.00 
 180   22:50   0.00   74.1    43    4.8   281     5.8   947.0    0.00 
 180   23:00   0.00   74.0    43    5.6   300     7.3   946.9    0.00 
 180   23:10   0.00   74.4    41    6.3   305     8.0   946.7    0.00 
 180   23:20   0.00   74.6    42    7.1   307     8.6   946.6    0.00 
 180   23:30   0.00   74.8    41    7.7   312     9.5   946.5    0.00 
 180   23:40   0.00   74.6    40    7.6   321     8.8   946.6    0.00 
 180   23:50   0.00   74.7    39    8.0   322     9.3   946.5    0.00 
 181    0:00   0.00   74.6    39    7.6   322     8.6   946.5    0.00 
 181    0:10   0.00   74.4    41    7.6   330     9.0   946.4    0.00 
 181    0:20   0.00   73.6    44    5.4   307     7.5   946.5    0.00 
 181    0:30   0.00   73.1    45    3.1   300     5.3   946.5    0.00 
 181    0:40   0.00   73.6    43    5.1   314     6.4   946.2    0.00 
 181    0:50   0.00   73.7    44    5.4   324     6.6   946.3    0.00 
 181    1:00   0.00   74.1    42    5.1   321     6.4   946.2    0.00 
 181    1:10   0.00   75.0    40    3.5   322     4.6   946.1    0.00 
 181    1:20   0.00   75.1    38    5.0   312     5.5   946.0    0.00 
 181    1:30   0.00   75.3    36    4.1   325     4.8   945.9    0.00 
 181    1:40   0.00   75.6    36    4.4   328     5.2   945.9    0.00 
 181    1:50   0.00   75.9    33    3.4   324     4.7   945.8    0.00 
 181    2:00   0.00   75.7    33    3.7   359     4.5   945.9    0.00 
 181    2:10   0.00   74.4    39    2.5   105     4.7   945.9    0.00 
 181    2:20   0.00   74.0    42    2.7    45     4.0   945.9    0.00 
 181    2:30   0.00   74.0    43    3.4    57     4.3   945.9    0.00 
 181    2:40   0.00   73.4    44    1.7    84     2.8   945.8    0.00 
 181    2:50   0.00   73.3    44    1.3   287     2.2   945.6    0.00 
 181    3:00   0.00   73.4    41    1.5   274     2.1   945.5    0.00 
 181    3:10   0.00   74.5    37    3.0    50     4.5   945.7    0.00 
 181    3:20   0.00   73.7    40    3.2    96     4.5   945.8    0.00 
 181    3:30   0.00   73.0    43    2.0   115     3.2   945.7    0.00 
 181    3:40   0.00   73.7    42    2.7    12     3.7   945.6    0.00 
 181    3:50   0.00   74.1    42    1.9    22     2.5   945.6    0.00 
 181    4:00   0.00   74.6    44    0.2    18     1.4   945.6    0.00 
 181    4:10   0.00   74.5    46    0.2    18     0.9   945.5    0.00 
 181    4:20   0.00   74.6    45    0.1    36     0.9   945.5    0.00 
 181    4:30   0.00   74.6    44    3.2    58     4.5   945.7    0.00 
 181    4:40   0.00   73.3    45    2.9    35     3.7   945.8    0.00 
 181    4:50   0.00   73.8    47    0.9    34     2.3   945.9    0.00 
 181    5:00   0.01   73.5    48    1.1   276     2.1   945.9    0.00 
 181    5:10   0.02   73.8    46    1.7   244     2.2   945.9    0.00 
 181    5:20   0.04   74.5    45    1.2   233     1.9   946.0    0.00 
 181    5:30   0.02   74.9    44    0.0     0     0.0   946.2    0.00 
 181    5:40   0.04   75.5    43    1.4    94     2.3   946.2    0.00 
 181    5:50   0.06   76.0    42    0.5    67     1.2   946.1    0.00 
 181    6:00   0.07   76.4    42    1.6   116     2.0   946.2    0.00 
 181    6:10   0.08   76.0    43    1.2   176     2.1   946.1    0.00 
 181    6:20   0.16   76.3    43    2.4    77     3.7   946.2    0.00 
 181    6:30   0.21   76.7    43    2.3    86     3.5   946.4    0.00 
 181    6:40   0.23   78.5    41    0.6   105     1.9   946.3    0.00 
 181    6:50   0.22   78.6    40    1.4   174     2.3   946.3    0.00 
 181    7:00   0.27   79.8    38    1.3   130     3.7   946.3    0.00 
 181    7:10   0.33   79.8    38    1.8   188     3.9   946.2    0.00 
 181    7:20   0.42   80.4    35    2.6   199     4.3   946.3    0.00 
 181    7:30   0.45   81.7    32    2.2   178     3.9   946.3    0.00 
 181    7:40   0.50   82.6    31    2.5   183     4.2   946.2    0.00 
 181    7:50   0.52   83.2    29    3.0   198     5.0   946.2    0.00 
 181    8:00   0.54   84.1    24    2.5   193     4.2   946.1    0.00 
 181    8:10   0.57   85.2    24    1.9   174     4.5   946.2    0.00 
 181    8:20   0.60   86.0    23    2.9   160     4.6   946.2    0.00 
 181    8:30   0.63   87.0    23    3.1   147     6.8   946.0    0.00 
 181    8:40   0.66   87.5    23    3.7   169     7.3   946.0    0.00 
 181    8:50   0.68   87.2    23    4.4   164     7.5   946.0    0.00 

Return to Motte Rimrock Reserve graphs page.


Western Regional Climate Center,wrcc@dri.edu